createdAt,value
2023-01-31T00:06:53.992Z,30.1
2023-01-31T00:12:16.929Z,30.1
2023-01-31T00:17:40.112Z,30.1
2023-01-31T00:23:03.803Z,30
2023-01-31T00:28:27.498Z,30
2023-01-31T00:33:51.664Z,29.9
2023-01-31T00:38:58.526Z,29.9
2023-01-31T00:44:05.067Z,29.9
2023-01-31T00:49:28.211Z,29.9
2023-01-31T00:54:51.675Z,29.8
2023-01-31T01:00:15.630Z,29.8
2023-01-31T01:05:39.263Z,29.8
2023-01-31T01:11:02.215Z,29.7
2023-01-31T01:16:25.962Z,29.7
2023-01-31T01:21:49.900Z,29.6
2023-01-31T01:27:14.045Z,29.6
2023-01-31T01:32:36.897Z,29.6
2023-01-31T01:37:45.648Z,29.6
2023-01-31T01:42:53.387Z,29.5
2023-01-31T01:48:02.121Z,29.4
2023-01-31T01:53:10.180Z,29.4
2023-01-31T01:58:32.732Z,29.4
2023-01-31T02:03:54.949Z,29.4
2023-01-31T02:09:18.147Z,29.9
2023-01-31T02:14:42.446Z,30.3
2023-01-31T02:19:49.418Z,30.8
2023-01-31T02:24:56.739Z,31.1
2023-01-31T02:30:19.309Z,31.4
2023-01-31T02:35:42.210Z,31.9
2023-01-31T02:40:49.377Z,32.3
2023-01-31T02:46:12.291Z,32.8
2023-01-31T02:51:34.351Z,33.3
2023-01-31T02:56:57.699Z,33.7
2023-01-31T03:02:21.761Z,34.2
2023-01-31T03:07:44.426Z,34.4
2023-01-31T03:13:07.877Z,34.6
2023-01-31T03:18:30.701Z,34.8
2023-01-31T03:23:22.253Z,34.9
2023-01-31T03:28:46.470Z,35.1
2023-01-31T03:34:09.800Z,35.3
2023-01-31T03:39:32.584Z,35.3
2023-01-31T03:44:55.545Z,35.5
2023-01-31T03:50:19.866Z,35.6
2023-01-31T03:55:41.774Z,35.6
2023-01-31T04:01:05.333Z,35.7
2023-01-31T04:06:13.392Z,35.7
2023-01-31T04:11:21.140Z,35.6
2023-01-31T04:16:45.489Z,35.6
2023-01-31T04:22:07.287Z,35.6
2023-01-31T04:27:31.260Z,35.6
2023-01-31T04:32:55.329Z,35.6
2023-01-31T04:38:18.270Z,35.6
2023-01-31T04:43:41.323Z,35.5
2023-01-31T04:49:04.864Z,35.4
2023-01-31T04:54:27.798Z,35.4
2023-01-31T04:59:50.475Z,35.4
2023-01-31T05:05:14.069Z,35.3
2023-01-31T05:10:24.337Z,35.3
2023-01-31T05:15:47.039Z,35.2
2023-01-31T05:21:10.589Z,35.1
2023-01-31T05:26:36.493Z,35.1
2023-01-31T05:32:03.604Z,35
2023-01-31T05:37:28.663Z,34.9
2023-01-31T05:42:51.584Z,34.8
2023-01-31T05:48:13.696Z,34.8
2023-01-31T05:53:22.046Z,34.7
2023-01-31T05:58:29.830Z,34.7
2023-01-31T06:03:53.407Z,34.6
2023-01-31T06:09:01.836Z,34.5
2023-01-31T06:14:24.305Z,34.4
2023-01-31T06:19:33.153Z,34.2
2023-01-31T06:24:56.225Z,34.1
2023-01-31T06:30:19.443Z,33.9
2023-01-31T06:35:55.962Z,33.8
2023-01-31T06:41:04.739Z,33.7
2023-01-31T06:46:13.285Z,33.6
2023-01-31T06:51:36.503Z,33.5
2023-01-31T06:57:00.545Z,33.4
2023-01-31T07:02:23.505Z,33.3
2023-01-31T07:07:46.016Z,33.2
2023-01-31T07:13:09.874Z,33.1
2023-01-31T07:18:32.989Z,33.1
2023-01-31T07:23:55.458Z,32.9
2023-01-31T07:29:05.417Z,32.9
2023-01-31T07:35:41.039Z,32.8
2023-01-31T07:41:03.866Z,32.7
2023-01-31T07:46:56.527Z,32.6
2023-01-31T07:52:21.159Z,32.5
2023-01-31T07:57:43.432Z,32.4
2023-01-31T08:03:06.954Z,32.4
2023-01-31T08:08:37.626Z,32.3
2023-01-31T08:14:00.262Z,32.2
2023-01-31T08:19:23.362Z,32.1
2023-01-31T08:24:46.950Z,32.1
2023-01-31T08:30:11.025Z,32.1
2023-01-31T08:35:49.630Z,32
2023-01-31T08:41:25.381Z,31.9
2023-01-31T08:47:02.662Z,31.8
2023-01-31T08:52:23.344Z,31.8
2023-01-31T08:57:58.411Z,31.7
2023-01-31T09:03:22.369Z,31.6
2023-01-31T09:08:46.694Z,31.6
2023-01-31T09:14:09.560Z,43.9
2023-01-31T09:19:16.780Z,50.9
2023-01-31T09:24:40.508Z,47.9
2023-01-31T09:30:19.443Z,45.2
2023-01-31T09:35:43.148Z,53.6
2023-01-31T09:41:06.307Z,53.5
2023-01-31T09:46:29.595Z,54.8
2023-01-31T09:51:53.348Z,55.7
2023-01-31T09:57:17.978Z,56.5
2023-01-31T10:02:41.443Z,56.8
2023-01-31T10:08:04.904Z,56.8
2023-01-31T10:12:58.613Z,57.6
2023-01-31T10:18:06.450Z,58.3
2023-01-31T10:23:16.099Z,58.4
2023-01-31T10:28:26.252Z,58.3
2023-01-31T10:33:33.428Z,57.4
2023-01-31T10:38:56.372Z,56.4
2023-01-31T10:44:20.507Z,53.9
2023-01-31T10:49:44.317Z,50.7
2023-01-31T10:55:09.070Z,52.9
2023-01-31T11:00:31.028Z,56.3
2023-01-31T11:11:02.120Z,49.4
2023-01-31T11:16:24.461Z,46.7
2023-01-31T11:21:47.237Z,44.7
2023-01-31T11:27:10.132Z,43.3
2023-01-31T11:32:33.142Z,42.2
2023-01-31T11:37:55.669Z,41.3
2023-01-31T11:43:03.009Z,40.5
2023-01-31T11:48:25.632Z,39.6
2023-01-31T11:53:51.925Z,38.9
2023-01-31T11:59:14.646Z,38.4
2023-01-31T12:04:52.155Z,37.9
2023-01-31T12:10:15.153Z,37.4
2023-01-31T12:15:47.703Z,36.9
2023-01-31T12:21:15.827Z,36.4
2023-01-31T12:26:38.426Z,35.9
2023-01-31T12:32:01.676Z,35.5
2023-01-31T12:37:39.646Z,35.1
2023-01-31T12:43:11.063Z,34.7
2023-01-31T12:48:49.294Z,34.4
2023-01-31T12:54:12.416Z,34
2023-01-31T12:59:48.940Z,33.7
2023-01-31T13:05:12.141Z,33.4
2023-01-31T13:10:48.276Z,33.2
2023-01-31T13:16:11.860Z,32.9
2023-01-31T13:21:18.597Z,32.7
2023-01-31T13:26:42.265Z,32.5
2023-01-31T13:32:05.410Z,32.3
2023-01-31T13:37:28.186Z,32.1
2023-01-31T13:42:35.477Z,31.9
2023-01-31T13:47:59.078Z,31.8
2023-01-31T13:53:25.295Z,31.6
2023-01-31T13:58:34.385Z,31.5
2023-01-31T14:03:58.154Z,31.4
2023-01-31T14:09:20.871Z,31.3
2023-01-31T14:14:44.881Z,31.1
2023-01-31T14:20:08.766Z,31
2023-01-31T14:25:31.409Z,30.9
2023-01-31T14:30:56.939Z,30.8
2023-01-31T14:36:19.565Z,30.8
2023-01-31T14:41:42.396Z,30.6
2023-01-31T14:47:07.925Z,30.6
2023-01-31T14:52:32.591Z,30.4
2023-01-31T14:57:54.464Z,30.4
2023-01-31T15:03:17.570Z,29.8
2023-01-31T15:08:40.195Z,28.3
2023-01-31T15:14:19.224Z,26.6
2023-01-31T15:20:04.627Z,24.9
2023-01-31T15:25:27.111Z,23.6
2023-01-31T15:30:50.308Z,22.5
2023-01-31T15:35:57.868Z,21.8
2023-01-31T15:41:20.802Z,21.2
2023-01-31T15:46:43.950Z,20.8
2023-01-31T15:52:23.879Z,20.4
2023-01-31T15:57:49.575Z,20
2023-01-31T16:03:13.273Z,19.8
2023-01-31T16:08:20.070Z,19.5
2023-01-31T16:13:33.218Z,19.3
2023-01-31T16:18:56.153Z,19.1
2023-01-31T16:24:19.342Z,18.9
2023-01-31T16:29:42.313Z,18.8
2023-01-31T16:35:06.689Z,18.6
2023-01-31T16:40:28.264Z,18.5
2023-01-31T16:45:50.731Z,18.4
2023-01-31T16:51:30.130Z,18.3
2023-01-31T16:56:52.704Z,18.2
2023-01-31T17:02:16.383Z,18.1
2023-01-31T17:07:27.056Z,18
2023-01-31T17:13:05.072Z,17.9
2023-01-31T17:18:18.522Z,17.9
2023-01-31T17:23:53.121Z,17.8
2023-01-31T17:29:19.903Z,17.8
2023-01-31T17:34:45.268Z,17.7
2023-01-31T17:40:21.400Z,17.6
2023-01-31T17:51:18.818Z,17.5
2023-01-31T17:56:41.664Z,17.4
2023-01-31T18:02:20.814Z,17.4
2023-01-31T18:07:57.795Z,17.3
2023-01-31T18:13:33.004Z,17.3
2023-01-31T18:19:10.478Z,17.3
2023-01-31T18:24:30.344Z,17.3
2023-01-31T18:30:14.627Z,17.2
2023-01-31T18:41:46.521Z,17.1
2023-01-31T18:47:24.399Z,17.1
2023-01-31T18:52:57.914Z,17.1
2023-01-31T18:58:37.608Z,17.1
2023-01-31T19:19:42.952Z,16.9
2023-01-31T19:25:05.703Z,16.9
2023-01-31T19:30:42.503Z,16.9
2023-01-31T19:36:20.347Z,16.9
2023-01-31T19:41:56.992Z,16.9
2023-01-31T19:47:38.961Z,16.9
2023-01-31T19:53:18.532Z,16.9
2023-01-31T19:58:15.520Z,16.9
2023-01-31T20:03:38.077Z,16.9
2023-01-31T20:08:45.995Z,16.8
2023-01-31T20:13:55.053Z,16.8
2023-01-31T20:19:02.336Z,16.8
2023-01-31T20:24:27.113Z,16.9
2023-01-31T20:29:50.175Z,16.9
2023-01-31T20:40:05.018Z,17.1
2023-01-31T20:45:12.918Z,17.3
2023-01-31T20:50:22.308Z,17.6
2023-01-31T20:55:45.465Z,17.8
2023-01-31T21:00:52.795Z,18.1
2023-01-31T21:06:00.149Z,18.6
2023-01-31T21:11:07.744Z,19
2023-01-31T21:16:31.278Z,19.5
2023-01-31T21:22:04.018Z,19.8
2023-01-31T21:27:10.997Z,20.1
2023-01-31T21:32:35.739Z,20.3
2023-01-31T21:37:57.904Z,20.5
2023-01-31T21:43:20.690Z,20.6
2023-01-31T21:48:30.996Z,20.7
2023-01-31T21:53:38.560Z,20.8
2023-01-31T21:59:01.586Z,20.9
2023-01-31T22:04:24.979Z,20.9
2023-01-31T22:09:32.464Z,20.9
2023-01-31T22:14:42.403Z,21
2023-01-31T22:20:05.259Z,21
2023-01-31T22:25:28.591Z,21.1
2023-01-31T22:31:05.595Z,21.1
2023-01-31T22:36:29.002Z,21.1
2023-01-31T22:41:53.277Z,21.1
2023-01-31T22:47:16.510Z,21.1
2023-01-31T22:52:39.572Z,21.1
2023-01-31T22:58:02.202Z,21.1
2023-01-31T23:03:24.893Z,21.1
2023-01-31T23:08:31.969Z,21.1
2023-01-31T23:13:39.293Z,21.1
2023-01-31T23:19:01.679Z,21.1
2023-01-31T23:24:09.159Z,21.1
2023-01-31T23:29:32.340Z,21
2023-01-31T23:34:40.635Z,21
2023-01-31T23:39:48.051Z,21.1
2023-01-31T23:45:11.046Z,21
2023-01-31T23:50:33.458Z,21
2023-01-31T23:55:57.294Z,21
